createdAt,value
2023-12-08T00:00:32.108Z,5.88
2023-12-08T00:02:59.224Z,6.75
2023-12-08T00:05:26.393Z,7.56
2023-12-08T00:07:53.542Z,8.13
2023-12-08T00:10:20.600Z,9.00
2023-12-08T00:12:47.608Z,9.88
2023-12-08T00:15:14.766Z,10.69
2023-12-08T00:17:41.835Z,11.69
2023-12-08T00:20:08.974Z,12.44
2023-12-08T00:22:35.990Z,13.25
2023-12-08T00:25:03.012Z,14.13
2023-12-08T00:27:30.127Z,14.75
2023-12-08T00:29:57.313Z,15.38
2023-12-08T00:32:25.307Z,16.25
2023-12-08T00:34:52.406Z,16.94
2023-12-08T00:37:19.475Z,17.44
2023-12-08T00:39:46.608Z,18.25
2023-12-08T00:42:13.651Z,18.81
2023-12-08T00:44:40.728Z,19.44
2023-12-08T00:47:07.792Z,19.94
2023-12-08T00:49:34.943Z,20.69
2023-12-08T00:52:02.109Z,21.19
2023-12-08T00:54:29.134Z,21.94
2023-12-08T00:56:56.274Z,22.63
2023-12-08T00:59:23.350Z,23.44
2023-12-08T01:01:50.400Z,24.00
2023-12-08T01:04:17.643Z,24.50
2023-12-08T01:06:44.710Z,24.94
2023-12-08T01:09:11.775Z,25.19
2023-12-08T01:11:38.930Z,24.94
2023-12-08T01:14:06.035Z,24.50
2023-12-08T01:16:33.187Z,23.81
2023-12-08T01:19:00.523Z,23.13
2023-12-08T01:21:27.702Z,22.63
2023-12-08T01:23:54.731Z,22.06
2023-12-08T01:26:21.790Z,21.69
2023-12-08T01:28:48.867Z,21.38
2023-12-08T01:31:15.926Z,20.94
2023-12-08T01:33:43.138Z,20.75
2023-12-08T01:36:38.883Z,20.38
2023-12-08T01:38:57.264Z,19.94
2023-12-08T01:41:24.308Z,19.63
2023-12-08T01:43:51.335Z,19.44
2023-12-08T01:46:18.383Z,19.56
2023-12-08T01:48:45.528Z,20.06
2023-12-08T01:51:12.684Z,20.94
2023-12-08T01:53:39.754Z,21.69
2023-12-08T01:56:06.834Z,22.88
2023-12-08T01:58:33.873Z,23.81
2023-12-08T02:01:01.011Z,24.44
2023-12-08T02:03:28.470Z,25.06
2023-12-08T02:05:55.571Z,24.75
2023-12-08T02:08:22.642Z,24.31
2023-12-08T02:10:49.790Z,23.75
2023-12-08T02:13:18.828Z,23.25
2023-12-08T02:15:45.904Z,22.81
2023-12-08T02:18:13.064Z,22.25
2023-12-08T02:20:40.211Z,21.88
2023-12-08T02:23:07.288Z,21.44
2023-12-08T02:25:34.308Z,21.06
2023-12-08T02:28:01.399Z,20.69
2023-12-08T02:30:28.441Z,20.38
2023-12-08T02:32:55.518Z,20.00
2023-12-08T02:35:22.560Z,19.69
2023-12-08T02:37:49.685Z,19.44
2023-12-08T02:40:16.801Z,19.25
2023-12-08T02:42:43.848Z,19.63
2023-12-08T02:45:10.956Z,20.19
2023-12-08T02:47:38.162Z,20.94
2023-12-08T02:50:05.338Z,21.81
2023-12-08T02:52:32.492Z,23.13
2023-12-08T02:54:59.557Z,23.81
2023-12-08T02:57:26.767Z,24.38
2023-12-08T02:59:54.002Z,25.06
2023-12-08T03:02:21.555Z,25.06
2023-12-08T03:04:48.629Z,24.56
2023-12-08T03:07:15.725Z,24.00
2023-12-08T03:09:42.767Z,23.44
2023-12-08T03:12:13.591Z,23.00
2023-12-08T03:14:40.996Z,22.44
2023-12-08T03:17:08.069Z,21.94
2023-12-08T03:19:35.137Z,21.50
2023-12-08T03:22:02.164Z,21.06
2023-12-08T03:24:29.221Z,20.75
2023-12-08T03:26:56.432Z,20.31
2023-12-08T03:29:23.510Z,20.00
2023-12-08T03:31:50.593Z,19.69
2023-12-08T03:34:17.688Z,19.38
2023-12-08T03:36:44.799Z,19.06
2023-12-08T03:39:12.012Z,19.19
2023-12-08T03:41:39.125Z,19.94
2023-12-08T03:44:06.237Z,21.00
2023-12-08T03:46:33.280Z,21.94
2023-12-08T03:49:00.480Z,22.44
2023-12-08T03:51:27.564Z,23.38
2023-12-08T03:53:54.704Z,24.19
2023-12-08T03:56:21.790Z,24.94
2023-12-08T03:58:48.822Z,24.88
2023-12-08T04:01:15.909Z,24.50
2023-12-08T04:03:43.149Z,24.13
2023-12-08T04:06:10.342Z,23.44
2023-12-08T04:08:37.494Z,23.13
2023-12-08T04:11:04.518Z,22.56
2023-12-08T04:13:31.609Z,22.06
2023-12-08T04:15:58.651Z,21.50
2023-12-08T04:18:25.827Z,21.13
2023-12-08T04:20:52.971Z,20.63
2023-12-08T04:23:20.168Z,20.31
2023-12-08T04:25:47.251Z,20.00
2023-12-08T04:28:14.371Z,19.63
2023-12-08T04:30:41.473Z,19.38
2023-12-08T04:33:08.672Z,19.06
2023-12-08T04:35:35.825Z,19.13
2023-12-08T04:38:02.866Z,19.63
2023-12-08T04:40:29.988Z,20.50
2023-12-08T04:42:57.046Z,21.75
2023-12-08T04:45:24.096Z,22.56
2023-12-08T04:47:51.335Z,23.25
2023-12-08T04:50:18.529Z,24.13
2023-12-08T04:52:45.699Z,25.00
2023-12-08T04:55:12.937Z,25.00
2023-12-08T04:57:39.993Z,24.50
2023-12-08T05:00:07.108Z,24.00
2023-12-08T05:02:34.222Z,23.25
2023-12-08T05:05:01.345Z,22.88
2023-12-08T05:07:28.786Z,22.38
2023-12-08T05:09:56.106Z,21.94
2023-12-08T05:12:23.171Z,21.38
2023-12-08T05:14:50.185Z,20.94
2023-12-08T05:17:17.299Z,20.56
2023-12-08T05:19:44.415Z,20.19
2023-12-08T05:22:11.461Z,19.88
2023-12-08T06:49:56.614Z,12.63
2023-12-08T06:52:23.751Z,12.81
2023-12-08T06:54:50.918Z,13.31
2023-12-08T06:57:18.075Z,14.25
2023-12-08T06:59:45.186Z,15.13
2023-12-08T07:02:12.276Z,16.06
2023-12-08T07:04:39.327Z,16.81
2023-12-08T07:07:06.392Z,17.63
2023-12-08T07:09:33.556Z,18.44
2023-12-08T07:12:00.751Z,19.19
2023-12-08T07:14:27.832Z,20.00
2023-12-08T07:16:57.150Z,20.69
2023-12-08T07:19:24.327Z,21.50
2023-12-08T07:21:51.495Z,22.44
2023-12-08T07:24:18.641Z,23.38
2023-12-08T07:26:45.807Z,24.19
2023-12-08T07:29:12.886Z,24.94
2023-12-08T07:31:39.949Z,24.69
2023-12-08T07:34:07.039Z,23.75
2023-12-08T07:36:34.163Z,23.00
2023-12-08T07:39:01.321Z,22.44
2023-12-08T07:41:28.359Z,22.19
2023-12-08T07:43:55.472Z,21.69
2023-12-08T07:46:22.493Z,21.44
2023-12-08T07:48:49.702Z,21.13
2023-12-08T07:51:16.928Z,20.88
2023-12-08T07:53:44.075Z,20.56
2023-12-08T07:56:11.090Z,20.31
2023-12-08T07:58:38.127Z,20.00
2023-12-08T08:01:05.348Z,19.75
2023-12-08T08:03:32.483Z,19.63
2023-12-08T08:05:59.733Z,19.50
2023-12-08T08:08:26.895Z,19.38
2023-12-08T08:10:53.906Z,19.31
2023-12-08T08:13:20.952Z,19.19
2023-12-08T08:15:48.071Z,19.13
2023-12-08T08:18:15.172Z,19.06
2023-12-08T08:20:42.258Z,19.00
2023-12-08T08:23:09.311Z,19.00
2023-12-08T08:25:36.351Z,18.88
2023-12-08T08:28:03.394Z,18.94
2023-12-08T08:30:30.449Z,19.06
2023-12-08T08:32:57.662Z,19.06
2023-12-08T08:35:24.774Z,18.81
2023-12-08T08:37:51.822Z,18.69
2023-12-08T08:40:18.837Z,18.69
2023-12-08T08:42:45.908Z,18.69
2023-12-08T08:45:13.004Z,18.75
2023-12-08T08:47:40.178Z,18.88
2023-12-08T08:50:07.438Z,19.00
2023-12-08T08:52:34.530Z,19.19
2023-12-08T08:55:01.623Z,19.31
2023-12-08T08:57:29.106Z,19.44
2023-12-08T08:59:56.891Z,19.56
2023-12-08T09:02:24.903Z,19.75
2023-12-08T09:04:52.223Z,19.88
2023-12-08T09:07:19.383Z,20.06
2023-12-08T09:09:47.169Z,20.19
2023-12-08T09:12:15.012Z,20.31
2023-12-08T09:14:42.271Z,20.50
2023-12-08T09:17:09.393Z,20.56
2023-12-08T09:19:36.587Z,20.69
2023-12-08T09:22:03.741Z,20.81
2023-12-08T09:24:30.850Z,20.94
2023-12-08T09:26:57.882Z,20.94
2023-12-08T09:29:24.947Z,21.00
2023-12-08T09:31:52.207Z,21.00
2023-12-08T09:34:19.383Z,21.00
2023-12-08T09:37:24.513Z,21.00
2023-12-08T09:39:33.444Z,20.88
2023-12-08T09:42:00.939Z,20.81
2023-12-08T09:44:28.069Z,20.88
2023-12-08T09:46:55.103Z,20.88
2023-12-08T09:49:22.290Z,20.75
2023-12-08T09:51:49.404Z,20.75
2023-12-08T09:54:16.528Z,20.69
2023-12-08T09:56:43.551Z,20.69
2023-12-08T09:59:10.598Z,20.69
2023-12-08T10:01:37.744Z,20.69
2023-12-08T10:04:04.830Z,20.69
2023-12-08T10:06:31.872Z,20.69
2023-12-08T10:08:58.958Z,20.63
2023-12-08T10:11:26.085Z,20.63
2023-12-08T10:13:53.179Z,20.63
2023-12-08T10:16:20.351Z,20.56
2023-12-08T10:18:47.503Z,20.50
2023-12-08T10:21:14.643Z,20.44
2023-12-08T10:23:41.813Z,20.38
2023-12-08T10:26:08.838Z,20.31
2023-12-08T10:28:35.927Z,20.25
2023-12-08T10:31:03.051Z,20.19
2023-12-08T10:33:30.268Z,20.13
2023-12-08T10:35:57.427Z,20.06
2023-12-08T10:38:24.536Z,20.00
2023-12-08T10:40:51.608Z,19.88
2023-12-08T10:43:18.632Z,19.81
2023-12-08T10:45:45.717Z,19.69
2023-12-08T10:48:12.833Z,19.50
2023-12-08T10:50:40.112Z,19.38
2023-12-08T10:53:07.193Z,19.19
2023-12-08T10:55:34.255Z,19.06
2023-12-08T10:58:01.431Z,18.94
2023-12-08T11:00:28.511Z,18.75
2023-12-08T11:02:55.620Z,18.56
2023-12-08T11:05:22.726Z,18.31
2023-12-08T11:07:49.762Z,18.19
2023-12-08T11:10:16.780Z,18.06
2023-12-08T11:12:43.801Z,18.63
2023-12-08T11:15:10.906Z,19.50
2023-12-08T11:17:38.052Z,20.31
2023-12-08T11:20:05.198Z,21.44
2023-12-08T11:22:32.277Z,22.25
2023-12-08T11:24:59.352Z,23.00
2023-12-08T11:27:26.753Z,23.25
2023-12-08T11:29:54.162Z,23.75
2023-12-08T11:32:21.282Z,23.25
2023-12-08T11:34:48.339Z,22.56
2023-12-08T11:37:15.429Z,22.00
2023-12-08T11:39:42.430Z,21.50
2023-12-08T11:42:09.582Z,21.00
2023-12-08T11:44:36.676Z,20.56
2023-12-08T11:47:03.739Z,20.19
2023-12-08T11:49:30.926Z,19.75
2023-12-08T11:51:58.005Z,19.44
2023-12-08T11:54:25.340Z,19.13
2023-12-08T11:56:52.418Z,18.75
2023-12-08T11:59:19.536Z,18.50
2023-12-08T12:01:46.698Z,18.63
2023-12-08T12:04:16.845Z,19.13
2023-12-08T12:06:44.196Z,20.25
2023-12-08T12:09:11.385Z,21.44
2023-12-08T12:11:38.473Z,22.56
2023-12-08T12:14:05.784Z,23.00
2023-12-08T12:16:32.817Z,24.00
2023-12-08T12:55:47.428Z,9.25
2023-12-08T12:58:14.675Z,10.38
2023-12-08T13:00:41.814Z,11.56
2023-12-08T13:03:09.060Z,12.81
2023-12-08T13:05:36.222Z,13.94
2023-12-08T13:08:03.294Z,15.06
2023-12-08T13:10:30.326Z,16.00
2023-12-08T13:12:57.450Z,17.00
2023-12-08T13:15:24.571Z,17.81
2023-12-08T13:17:53.845Z,18.63
2023-12-08T13:20:23.737Z,19.38
2023-12-08T13:22:52.147Z,19.94
2023-12-08T13:25:21.097Z,20.63
2023-12-08T13:27:48.217Z,21.25
2023-12-08T13:30:16.934Z,21.81
2023-12-08T13:32:44.267Z,22.31
2023-12-08T13:35:11.472Z,22.81
2023-12-08T13:37:38.559Z,23.31
2023-12-08T13:40:06.774Z,23.81
2023-12-08T13:42:35.295Z,23.94
2023-12-08T13:45:04.654Z,23.69
2023-12-08T13:47:32.179Z,23.38
2023-12-08T13:50:00.890Z,22.88
2023-12-08T13:52:27.992Z,22.38
2023-12-08T13:54:55.102Z,21.81
2023-12-08T13:57:22.242Z,21.25
2023-12-08T13:59:49.386Z,20.81
2023-12-08T14:02:16.472Z,20.38
2023-12-08T14:04:43.728Z,20.06
2023-12-08T14:07:10.839Z,19.69
2023-12-08T14:09:39.773Z,19.38
2023-12-08T14:12:07.627Z,19.13
2023-12-08T14:14:34.674Z,18.88
2023-12-08T14:17:01.733Z,18.63
2023-12-08T14:19:28.958Z,18.69
2023-12-08T14:21:56.072Z,19.31
2023-12-08T14:24:23.219Z,20.13
2023-12-08T14:26:50.324Z,20.88
2023-12-08T14:29:17.458Z,21.69
2023-12-08T14:31:44.572Z,22.19
2023-12-08T14:34:15.017Z,22.75
2023-12-08T14:36:42.268Z,23.38
2023-12-08T14:39:09.401Z,23.81
2023-12-08T14:41:38.356Z,23.75
2023-12-08T14:44:05.500Z,23.56
2023-12-08T14:46:32.563Z,23.06
2023-12-08T14:48:59.806Z,22.63
2023-12-08T14:51:26.988Z,22.13
2023-12-08T14:53:54.218Z,21.69
2023-12-08T14:56:21.299Z,21.19
2023-12-08T14:58:48.432Z,20.81
2023-12-08T15:01:15.522Z,20.50
2023-12-08T15:03:45.957Z,20.25
2023-12-08T15:06:13.206Z,20.00
2023-12-08T15:08:41.545Z,19.75
2023-12-08T15:11:08.980Z,19.56
2023-12-08T15:13:36.194Z,19.31
2023-12-08T15:16:06.440Z,19.06
2023-12-08T15:18:35.268Z,19.00
2023-12-08T15:21:02.662Z,19.44
2023-12-08T15:23:29.749Z,20.25
2023-12-08T15:25:58.426Z,21.13
2023-12-08T15:28:25.428Z,21.81
2023-12-08T15:30:52.559Z,22.38
2023-12-08T15:33:19.670Z,22.94
2023-12-08T15:35:46.891Z,23.56
2023-12-08T15:38:16.372Z,23.69
2023-12-08T15:40:43.477Z,23.56
2023-12-08T15:43:10.580Z,23.25
2023-12-08T15:45:37.764Z,22.75
2023-12-08T15:48:05.158Z,22.38
2023-12-08T15:50:32.298Z,21.88
2023-12-08T15:52:59.396Z,21.38
2023-12-08T15:55:29.772Z,21.00
2023-12-08T15:57:56.807Z,20.63
2023-12-08T16:00:24.027Z,20.31
2023-12-08T16:02:54.160Z,20.13
2023-12-08T16:05:21.213Z,19.88
2023-12-08T16:07:48.276Z,19.63
2023-12-08T16:11:56.588Z,18.88
2023-12-08T16:14:23.707Z,19.25
2023-12-08T16:16:50.801Z,20.13
2023-12-08T16:19:17.983Z,21.25
2023-12-08T16:21:46.586Z,21.94
2023-12-08T16:24:13.701Z,22.44
2023-12-08T16:26:40.759Z,23.00
2023-12-08T16:29:07.848Z,23.63
2023-12-08T16:31:34.984Z,23.75
2023-12-08T16:34:02.176Z,23.63
2023-12-08T16:36:29.352Z,23.25
2023-12-08T16:38:56.451Z,22.63
2023-12-08T16:41:23.507Z,22.25
2023-12-08T16:43:50.531Z,21.75
2023-12-08T16:46:17.645Z,21.31
2023-12-08T16:48:44.916Z,21.00
2023-12-08T16:51:12.212Z,20.63
2023-12-08T16:53:39.293Z,20.38
2023-12-08T16:56:06.277Z,20.13
2023-12-08T16:58:33.408Z,19.88
2023-12-08T17:01:00.494Z,19.63
2023-12-08T17:03:27.629Z,19.38
2023-12-08T17:05:54.774Z,19.19
2023-12-08T17:08:21.836Z,19.25
2023-12-08T17:10:48.940Z,19.75
2023-12-08T17:13:16.053Z,20.56
2023-12-08T17:15:43.062Z,21.38
2023-12-08T17:18:10.178Z,22.25
2023-12-08T17:20:37.304Z,22.94
2023-12-08T17:23:04.331Z,23.63
2023-12-08T17:25:31.352Z,23.75
2023-12-08T17:27:58.446Z,23.50
2023-12-08T17:30:25.550Z,23.00
2023-12-08T17:32:52.747Z,22.44
2023-12-08T17:35:19.955Z,21.94
2023-12-08T17:37:47.057Z,21.50
2023-12-08T17:40:14.132Z,21.19
2023-12-08T17:42:41.235Z,20.88
2023-12-08T17:45:08.397Z,20.63
2023-12-08T17:47:35.471Z,20.31
2023-12-08T17:50:02.592Z,20.00
2023-12-08T17:52:29.865Z,19.75
2023-12-08T17:54:56.988Z,19.44
2023-12-08T17:57:24.140Z,19.19
2023-12-08T17:59:51.350Z,19.00
2023-12-08T18:02:18.384Z,19.06
2023-12-08T18:04:45.499Z,19.56
2023-12-08T18:07:12.604Z,20.44
2023-12-08T18:09:39.800Z,21.25
2023-12-08T18:12:07.138Z,22.00
2023-12-08T18:14:34.261Z,22.63
2023-12-08T18:17:01.394Z,23.19
2023-12-08T18:21:57.926Z,23.13
2023-12-08T18:24:24.971Z,22.88
2023-12-08T18:26:54.305Z,22.44
2023-12-08T18:29:21.770Z,21.94
2023-12-08T18:31:48.996Z,21.56
2023-12-08T18:34:16.171Z,21.19
2023-12-08T18:36:43.313Z,20.75
2023-12-08T18:39:10.377Z,20.44
2023-12-08T18:41:37.466Z,20.19
2023-12-08T18:44:04.501Z,20.06
2023-12-08T18:46:31.566Z,19.94
2023-12-08T18:48:59.394Z,19.81
2023-12-08T18:51:26.622Z,19.69
2023-12-08T18:53:53.673Z,19.81
2023-12-08T18:56:20.791Z,19.81
2023-12-08T18:58:47.802Z,19.75
2023-12-08T19:01:14.883Z,19.63
2023-12-08T19:03:41.940Z,19.44
2023-12-08T19:06:10.397Z,19.31
2023-12-08T19:08:39.042Z,19.19
2023-12-08T19:11:06.139Z,19.06
2023-12-08T19:13:33.226Z,18.94
2023-12-08T19:16:00.324Z,18.81
2023-12-08T19:18:27.485Z,19.00
2023-12-08T19:20:54.625Z,19.50
2023-12-08T19:23:21.675Z,20.25
2023-12-08T19:25:51.698Z,20.94
2023-12-08T19:28:18.794Z,21.75
2023-12-08T19:30:45.885Z,22.56
2023-12-08T19:33:12.965Z,23.38
2023-12-08T19:35:40.046Z,23.75
2023-12-08T19:38:07.128Z,23.81
2023-12-08T19:40:34.211Z,23.81
2023-12-08T19:43:01.391Z,23.63
2023-12-08T19:45:28.483Z,23.38
2023-12-08T19:47:55.666Z,23.25
2023-12-08T19:50:24.691Z,24.06
2023-12-08T19:52:51.907Z,24.19
2023-12-08T19:55:19.058Z,24.00
2023-12-08T19:57:47.391Z,23.75
2023-12-08T20:00:14.444Z,23.63
2023-12-08T20:02:41.504Z,23.44
2023-12-08T20:05:08.477Z,23.50
2023-12-08T20:07:35.551Z,23.50
2023-12-08T20:10:02.620Z,23.38
2023-12-08T20:12:29.715Z,23.44
2023-12-08T20:14:56.989Z,23.63
2023-12-08T20:17:25.071Z,23.69
2023-12-08T20:19:53.285Z,23.75
2023-12-08T20:22:20.521Z,23.94
2023-12-08T20:24:47.887Z,24.00
2023-12-08T20:27:14.973Z,24.00
2023-12-08T20:29:42.086Z,23.94
2023-12-08T20:32:09.293Z,23.94
2023-12-08T20:34:38.399Z,24.00
2023-12-08T20:37:05.844Z,24.00
2023-12-08T20:39:33.001Z,24.00
2023-12-08T20:42:00.127Z,23.88
2023-12-08T20:44:27.320Z,23.81
2023-12-08T20:46:54.825Z,23.88
2023-12-08T20:49:22.069Z,23.75
2023-12-08T20:51:49.292Z,23.69
2023-12-08T20:54:16.611Z,23.50
2023-12-08T20:56:43.681Z,23.31
2023-12-08T20:59:10.707Z,23.31
2023-12-08T21:01:37.805Z,23.19
2023-12-08T21:04:04.939Z,23.13
2023-12-08T21:06:32.126Z,23.06
2023-12-08T21:08:59.261Z,23.00
2023-12-08T21:11:26.363Z,22.94
2023-12-08T21:13:53.437Z,22.94
2023-12-08T21:16:20.439Z,22.88
2023-12-08T21:18:47.621Z,22.81
2023-12-08T21:21:14.913Z,22.75
2023-12-08T21:23:42.002Z,22.69
2023-12-08T21:26:09.023Z,22.69
2023-12-08T21:28:36.084Z,22.63
2023-12-08T21:31:03.127Z,22.56
2023-12-08T21:33:30.225Z,22.50
2023-12-08T21:35:57.321Z,22.44
2023-12-08T21:38:24.367Z,22.38
2023-12-08T21:40:51.434Z,22.38
2023-12-08T21:43:18.447Z,22.31
2023-12-08T21:45:45.480Z,22.25
2023-12-08T21:48:12.688Z,22.25
2023-12-08T21:50:39.880Z,22.19
2023-12-08T21:53:06.903Z,22.13
2023-12-08T21:55:33.970Z,22.06
2023-12-08T21:58:00.999Z,21.94
2023-12-08T22:00:28.039Z,21.88
2023-12-08T22:02:55.212Z,21.75
2023-12-08T22:05:22.348Z,21.69
2023-12-08T22:07:49.402Z,21.50
2023-12-08T22:10:16.412Z,21.31
2023-12-08T22:12:43.426Z,21.13
2023-12-08T22:15:10.541Z,21.00
2023-12-08T22:17:37.659Z,20.81
2023-12-08T22:20:04.744Z,20.56
2023-12-08T22:22:31.767Z,20.38
2023-12-08T22:24:59.346Z,20.19
2023-12-08T22:27:26.725Z,20.00
2023-12-08T22:29:54.023Z,19.69
2023-12-08T22:32:21.094Z,19.44
2023-12-08T22:34:48.245Z,19.25
2023-12-08T22:37:15.395Z,19.00
2023-12-08T22:39:42.530Z,18.69
2023-12-08T22:42:09.664Z,18.50
2023-12-08T22:44:36.718Z,18.94
2023-12-08T22:47:03.729Z,20.13
2023-12-08T22:49:30.828Z,21.19
2023-12-08T22:51:59.193Z,21.94
2023-12-08T22:54:27.206Z,22.31
2023-12-08T22:56:54.558Z,22.88
2023-12-08T22:59:21.683Z,23.50
2023-12-08T23:01:48.683Z,23.88
2023-12-08T23:04:15.994Z,23.81
2023-12-08T23:06:43.187Z,23.50
2023-12-08T23:09:10.254Z,23.00
2023-12-08T23:11:37.304Z,22.44
2023-12-08T23:14:04.373Z,21.88
2023-12-08T23:16:31.389Z,21.38
2023-12-08T23:18:58.631Z,20.94
2023-12-08T23:21:25.978Z,20.50
2023-12-08T23:23:53.145Z,20.06
2023-12-08T23:26:20.179Z,19.75
2023-12-08T23:28:47.227Z,19.38
2023-12-08T23:31:14.315Z,19.00
